»·PEaware :: WAT169 KSAN-KLAS

WAT169 :: KSAN-KLAS

FLIGHT INFORMATION

Flight Status: Arrived
Operator:
Walker Air Transport
More flights by this operator :: More flights under this callsign
Pilot: Marty P. (27464)
Aircraft: BEECH AIRCRAFT SUPER KING AIR 350
(B350)
More flights by this aircraft type
Origin: KSAN San Diego Intl-Lindbergh
United States
Destination: KLAS McCarran Intl
United States
More flights between these airports :: More routes between these airports
Route: +BRDR7 JLI V514 GFS V538 CRESO CRESO4
File this flight plan on PilotEdge
Remarks:
Altitude:
(Current/Filed)
25,000ft
Speed:
(Current/Filed)
220kts
Departed: 08-Oct-20 06:12 PM
Arrived: 08-Oct-20 07:16 PM
Distance/Time
Traveled:
225nm/1:04
Distance/Time
To Go:
Arrived

Flight Plot

Page will automatically refresh every two minutes.

Flight plan parsing failed; only flown route is shown


Map Options




Map Legend


Flown Route
Filed Route
Departure Airport
Arrival Airport
Navaid (VOR, NDB)
Fix

Horizontal Profiles

Position Reports

Time Latitude Longitude Heading Altitude Ground
Speed
08-Oct-20 17:45 32.731554 -117.191338 66 22ft 0kts
08-Oct-20 17:46 32.731554 -117.191338 66 22ft 0kts
08-Oct-20 17:47 32.731554 -117.191338 66 22ft 0kts
08-Oct-20 17:48 32.731554 -117.191338 66 22ft 0kts
08-Oct-20 17:49 32.731554 -117.191338 66 22ft 0kts
08-Oct-20 17:50 32.731554 -117.191338 66 22ft 0kts
08-Oct-20 17:51 32.731554 -117.191338 66 22ft 0kts
08-Oct-20 17:52 32.731554 -117.191338 66 22ft 0kts
08-Oct-20 17:53 32.731554 -117.191338 66 22ft 0kts
08-Oct-20 17:54 32.731554 -117.191338 66 22ft 0kts
08-Oct-20 17:55 32.731554 -117.191338 66 22ft 0kts
08-Oct-20 17:56 32.731554 -117.191338 66 22ft 0kts
08-Oct-20 17:57 32.731554 -117.191338 66 22ft 0kts
08-Oct-20 17:58 32.731554 -117.191338 66 22ft 0kts
08-Oct-20 17:59 32.731554 -117.191338 66 22ft 0kts
08-Oct-20 18:00 32.731554 -117.191338 66 22ft 0kts
08-Oct-20 18:01 32.731554 -117.191338 66 22ft 0kts
08-Oct-20 18:02 32.731554 -117.191338 66 22ft 0kts
08-Oct-20 18:03 32.731554 -117.191338 66 22ft 0kts
08-Oct-20 18:04 32.731554 -117.191338 66 22ft 0kts
08-Oct-20 18:05 32.731554 -117.191338 66 22ft 0kts
08-Oct-20 18:06 32.731627 -117.191141 66 22ft 6kts
08-Oct-20 18:07 32.731883 -117.186994 108 22ft 23kts
08-Oct-20 18:08 32.730243 -117.180180 106 22ft 25kts
08-Oct-20 18:09 32.729547 -117.176708 72 22ft 0kts
08-Oct-20 18:10 32.729663 -117.176324 58 22ft 8kts
08-Oct-20 18:11 32.734575 -117.194947 285 199ft 141kts
08-Oct-20 18:12 32.749255 -117.246554 290 1827ft 173kts
08-Oct-20 18:13 32.763262 -117.301903 260 3585ft 183kts
08-Oct-20 18:14 32.726826 -117.300740 107 5180ft 183kts
08-Oct-20 18:15 32.693554 -117.254052 133 6925ft 188kts
08-Oct-20 18:16 32.656823 -117.209176 133 8712ft 192kts
08-Oct-20 18:17 32.621299 -117.162067 105 10332ft 196kts
08-Oct-20 18:18 32.617317 -117.097583 95 11843ft 199kts
08-Oct-20 18:19 32.613454 -117.031899 96 13288ft 199kts
08-Oct-20 18:20 32.611579 -116.966782 84 14721ft 199kts
08-Oct-20 18:21 32.618094 -116.901586 85 16164ft 199kts
08-Oct-20 18:23 32.624544 -116.836611 85 17655ft 199kts
08-Oct-20 18:24 32.634028 -116.772659 51 19296ft 206kts
08-Oct-20 18:25 32.687389 -116.749686 17 21155ft 209kts
08-Oct-20 18:26 32.743109 -116.729674 18 22918ft 211kts
08-Oct-20 18:27 32.799355 -116.709410 18 24544ft 213kts
08-Oct-20 18:28 32.860160 -116.687458 18 25010ft 252kts
08-Oct-20 18:29 32.931235 -116.661771 18 25002ft 280kts
08-Oct-20 18:30 33.008071 -116.633949 17 24996ft 297kts
08-Oct-20 18:31 33.089748 -116.604326 17 24998ft 314kts
08-Oct-20 18:32 33.169752 -116.560630 37 25002ft 322kts
08-Oct-20 18:33 33.243033 -116.496852 37 24993ft 330kts
08-Oct-20 18:34 33.318057 -116.431545 37 24991ft 337kts
08-Oct-20 18:35 33.394124 -116.365190 37 24990ft 340kts
08-Oct-20 18:36 33.470974 -116.297994 37 24997ft 342kts
08-Oct-20 18:37 33.547602 -116.230846 37 25028ft 342kts
08-Oct-20 18:38 33.624461 -116.163346 37 25054ft 342kts
08-Oct-20 18:38 33.690165 -116.110420 34 25057ft 342kts
08-Oct-20 18:40 33.782430 -116.036344 34 25063ft 342kts
08-Oct-20 18:40 33.848488 -115.983167 34 25068ft 342kts
08-Oct-20 18:42 33.940632 -115.908822 34 25073ft 343kts
08-Oct-20 18:42 34.006666 -115.855430 34 25073ft 343kts
08-Oct-20 18:44 34.098898 -115.780683 34 25076ft 343kts
08-Oct-20 18:44 34.158510 -115.717963 43 25099ft 342kts
08-Oct-20 18:45 34.228054 -115.639749 43 25127ft 343kts
08-Oct-20 18:46 34.298223 -115.560672 43 25136ft 344kts
08-Oct-20 18:47 34.380497 -115.505656 19 25132ft 345kts
08-Oct-20 18:48 34.471044 -115.466373 19 25137ft 346kts
08-Oct-20 18:49 34.561694 -115.426848 19 25137ft 347kts
08-Oct-20 18:50 34.652530 -115.387150 19 25137ft 348kts
08-Oct-20 18:51 34.743381 -115.347350 19 25134ft 348kts
08-Oct-20 18:52 34.834200 -115.307481 19 25108ft 348kts
08-Oct-20 18:53 34.925192 -115.267408 19 25091ft 348kts
08-Oct-20 18:54 35.015973 -115.227351 19 25016ft 347kts
08-Oct-20 18:55 35.106803 -115.187728 12 23508ft 347kts
08-Oct-20 18:56 35.190058 -115.230019 321 21872ft 336kts
08-Oct-20 18:57 35.263956 -115.298280 321 19521ft 325kts
08-Oct-20 18:58 35.333770 -115.362585 322 16644ft 314kts
08-Oct-20 18:59 35.403192 -115.426646 322 13369ft 305kts
08-Oct-20 19:00 35.466389 -115.485105 323 12283ft 276kts
08-Oct-20 19:01 35.534529 -115.489165 48 12339ft 281kts
08-Oct-20 19:02 35.588550 -115.415413 47 12332ft 299kts
08-Oct-20 19:03 35.644609 -115.339949 47 12307ft 283kts
08-Oct-20 19:04 35.694575 -115.272611 47 12320ft 254kts
08-Oct-20 19:05 35.747318 -115.211665 16 11970ft 270kts
08-Oct-20 19:06 35.818603 -115.192152 11 10485ft 255kts
08-Oct-20 19:07 35.885860 -115.174046 11 8957ft 241kts
08-Oct-20 19:08 35.948867 -115.157052 11 7428ft 224kts
08-Oct-20 19:09 36.004491 -115.126597 24 5913ft 215kts
08-Oct-20 19:10 36.051184 -115.099471 24 5749ft 153kts
08-Oct-20 19:11 36.089491 -115.077088 24 5254ft 160kts
08-Oct-20 19:12 36.121041 -115.104583 300 3833ft 156kts
08-Oct-20 19:13 36.122839 -115.143340 198 2490ft 115kts
08-Oct-20 19:14 36.094582 -115.159291 204 2108ft 102kts
08-Oct-20 19:15 36.089380 -115.163455 294 2130ft 0kts
08-Oct-20 19:16 36.089705 -115.164358 280 2131ft 9kts
08-Oct-20 19:17 36.090357 -115.165279 21 2133ft 0kts

Navigation Log

Ident Type
Flight plan parsing failed, navigation log unavailable